createdAt,value
2022-12-02T00:00:26.090Z,7.60
2022-12-02T00:03:30.724Z,7.60
2022-12-02T00:06:34.632Z,7.60
2022-12-02T00:09:37.875Z,7.60
2022-12-02T00:12:42.538Z,7.60
2022-12-02T00:15:48.078Z,8.30
2022-12-02T00:18:51.428Z,7.60
2022-12-02T00:21:54.597Z,7.70
2022-12-02T00:24:57.572Z,7.60
2022-12-02T00:28:02.625Z,7.60
2022-12-02T00:31:06.414Z,7.60
2022-12-02T00:34:09.766Z,7.60
2022-12-02T00:37:12.728Z,7.60
2022-12-02T00:40:16.004Z,7.50
2022-12-02T00:43:38.075Z,7.50
2022-12-02T00:46:41.282Z,7.50
2022-12-02T00:49:44.387Z,7.50
2022-12-02T00:52:47.420Z,7.50
2022-12-02T00:55:50.460Z,7.50
2022-12-02T00:58:54.783Z,8.00
2022-12-02T01:01:57.899Z,7.40
2022-12-02T01:05:00.938Z,7.40
2022-12-02T01:08:04.060Z,7.40
2022-12-02T01:11:07.314Z,7.40
2022-12-02T01:14:11.736Z,7.30
2022-12-02T01:17:14.731Z,7.30
2022-12-02T01:20:17.894Z,8.10
2022-12-02T01:23:21.303Z,7.30
2022-12-02T01:26:24.443Z,7.30
2022-12-02T01:29:28.706Z,7.30
2022-12-02T01:32:31.809Z,7.20
2022-12-02T01:35:34.827Z,7.20
2022-12-02T01:38:37.913Z,7.20
2022-12-02T01:41:40.956Z,7.10
2022-12-02T01:44:45.356Z,7.10
2022-12-02T01:47:48.947Z,7.10
2022-12-02T01:50:52.812Z,7.10
2022-12-02T01:53:55.849Z,7.00
2022-12-02T01:56:59.246Z,7.00
2022-12-02T02:00:03.785Z,7.00
2022-12-02T02:03:06.887Z,7.00
2022-12-02T02:06:09.914Z,7.00
2022-12-02T02:09:13.551Z,7.00
2022-12-02T02:12:16.538Z,7.10
2022-12-02T02:15:22.960Z,7.10
2022-12-02T02:18:26.088Z,7.10
2022-12-02T02:21:35.646Z,7.10
2022-12-02T02:24:40.037Z,7.10
2022-12-02T02:27:56.767Z,7.20
2022-12-02T02:31:00.647Z,7.20
2022-12-02T02:34:04.173Z,7.20
2022-12-02T02:37:07.201Z,7.20
2022-12-02T02:40:16.421Z,8.20
2022-12-02T02:43:22.230Z,7.20
2022-12-02T02:46:25.602Z,7.30
2022-12-02T02:49:28.709Z,7.30
2022-12-02T02:52:31.763Z,7.30
2022-12-02T02:55:37.814Z,7.30
2022-12-02T02:58:40.977Z,8.00
2022-12-02T03:01:48.896Z,7.30
2022-12-02T03:04:52.835Z,7.30
2022-12-02T03:07:56.352Z,7.40
2022-12-02T03:11:03.443Z,7.30
2022-12-02T03:14:14.153Z,7.40
2022-12-02T03:17:18.799Z,7.40
2022-12-02T03:20:23.265Z,7.70
2022-12-02T03:23:26.707Z,7.40
2022-12-02T03:26:31.708Z,7.40
2022-12-02T03:29:35.389Z,7.40
2022-12-02T03:32:39.495Z,7.40
2022-12-02T03:35:42.605Z,6.70
2022-12-02T03:38:46.088Z,7.40
2022-12-02T03:41:51.231Z,7.40
2022-12-02T03:44:54.878Z,7.40
2022-12-02T03:47:57.911Z,7.50
2022-12-02T03:51:00.985Z,8.20
2022-12-02T03:54:05.437Z,6.40
2022-12-02T03:57:10.600Z,7.40
2022-12-02T04:00:16.507Z,7.40
2022-12-02T04:03:19.615Z,7.30
2022-12-02T04:06:22.906Z,7.30
2022-12-02T04:09:26.249Z,7.30
2022-12-02T04:12:30.577Z,7.30
2022-12-02T04:15:33.593Z,7.30
2022-12-02T04:18:36.847Z,7.20
2022-12-02T04:21:39.814Z,7.20
2022-12-02T04:24:42.768Z,7.20
2022-12-02T04:27:47.130Z,7.50
2022-12-02T04:30:50.290Z,7.10
2022-12-02T04:33:53.313Z,8.10
2022-12-02T04:36:56.229Z,7.10
2022-12-02T04:39:59.297Z,7.10
2022-12-02T04:43:04.159Z,7.10
2022-12-02T04:46:07.427Z,7.10
2022-12-02T04:49:10.486Z,7.10
2022-12-02T04:52:13.619Z,7.00
2022-12-02T04:55:16.843Z,7.10
2022-12-02T04:58:21.179Z,7.10
2022-12-02T05:01:24.304Z,7.10
2022-12-02T05:04:28.530Z,7.10
2022-12-02T05:07:31.784Z,7.10
2022-12-02T05:10:34.789Z,7.10
2022-12-02T05:13:39.411Z,7.10
2022-12-02T05:16:42.382Z,7.40
2022-12-02T05:19:45.417Z,7.00
2022-12-02T05:22:48.422Z,7.20
2022-12-02T05:25:51.452Z,7.20
2022-12-02T05:28:55.787Z,7.30
2022-12-02T05:31:58.953Z,7.30
2022-12-02T05:35:02.020Z,7.30
2022-12-02T05:38:05.446Z,7.40
2022-12-02T05:41:09.231Z,7.30
2022-12-02T05:44:22.221Z,7.30
2022-12-02T05:47:29.765Z,7.30
2022-12-02T05:50:33.513Z,7.40
2022-12-02T05:53:36.490Z,7.40
2022-12-02T05:56:39.675Z,7.40
2022-12-02T05:59:44.060Z,7.40
2022-12-02T06:02:50.158Z,7.40
2022-12-02T06:05:54.628Z,7.40
2022-12-02T06:08:58.397Z,7.40
2022-12-02T06:12:04.186Z,7.40
2022-12-02T06:15:15.232Z,7.70
2022-12-02T06:18:21.525Z,7.70
2022-12-02T06:21:25.016Z,7.40
2022-12-02T06:24:30.885Z,7.40
2022-12-02T06:27:35.391Z,7.40
2022-12-02T06:30:41.243Z,7.20
2022-12-02T06:33:47.081Z,7.40
2022-12-02T06:36:50.114Z,7.40
2022-12-02T06:43:27.815Z,7.40
2022-12-02T06:46:35.702Z,7.40
2022-12-02T06:49:41.486Z,7.40
2022-12-02T06:52:47.982Z,8.30
2022-12-02T06:55:54.032Z,7.40
2022-12-02T06:59:01.050Z,7.40
2022-12-02T07:02:27.499Z,7.30
2022-12-02T07:05:30.563Z,7.40
2022-12-02T07:08:34.033Z,7.00
2022-12-02T07:11:51.779Z,7.40
2022-12-02T07:14:57.869Z,7.40
2022-12-02T07:18:12.874Z,7.40
2022-12-02T07:21:15.967Z,7.40
2022-12-02T07:24:23.665Z,7.40
2022-12-02T07:27:32.697Z,7.40
2022-12-02T07:30:42.878Z,7.40
2022-12-02T07:33:48.111Z,7.40
2022-12-02T07:36:51.088Z,7.40
2022-12-02T07:39:54.137Z,7.50
2022-12-02T07:42:57.389Z,7.50
2022-12-02T07:46:00.836Z,7.50
2022-12-02T07:49:05.422Z,7.50
2022-12-02T07:52:08.510Z,7.50
2022-12-02T07:55:11.637Z,7.50
2022-12-02T07:58:14.622Z,7.50
2022-12-02T08:01:19.601Z,7.50
2022-12-02T08:04:24.761Z,7.60
2022-12-02T08:07:27.832Z,7.60
2022-12-02T08:10:30.895Z,7.60
2022-12-02T08:13:34.442Z,7.60
2022-12-02T08:16:37.497Z,7.60
2022-12-02T08:19:42.372Z,7.60
2022-12-02T08:22:45.392Z,7.70
2022-12-02T08:25:48.379Z,7.70
2022-12-02T08:28:54.231Z,6.80
2022-12-02T08:31:57.735Z,7.70
2022-12-02T08:35:02.219Z,7.70
2022-12-02T08:38:05.257Z,7.70
2022-12-02T08:41:13.573Z,7.00
2022-12-02T08:44:17.080Z,7.80
2022-12-02T08:47:20.145Z,7.80
2022-12-02T08:50:24.808Z,7.20
2022-12-02T08:53:27.969Z,7.90
2022-12-02T08:56:31.159Z,7.90
2022-12-02T08:59:34.169Z,7.90
2022-12-02T09:02:37.358Z,7.90
2022-12-02T09:05:42.292Z,7.90
2022-12-02T09:08:45.480Z,8.00
2022-12-02T09:11:48.563Z,8.00
2022-12-02T09:14:51.904Z,8.00
2022-12-02T09:17:55.093Z,8.00
2022-12-02T09:20:59.354Z,8.00
2022-12-02T09:24:02.361Z,8.10
2022-12-02T09:27:05.867Z,8.10
2022-12-02T09:30:10.920Z,8.10
2022-12-02T09:33:13.924Z,8.30
2022-12-02T09:36:18.537Z,8.10
2022-12-02T09:39:21.641Z,8.20
2022-12-02T09:42:25.418Z,8.20
2022-12-02T09:45:28.772Z,8.20
2022-12-02T09:48:31.957Z,8.20
2022-12-02T09:51:36.360Z,9.00
2022-12-02T09:54:39.391Z,8.20
2022-12-02T09:57:43.550Z,8.30
2022-12-02T10:00:47.247Z,9.20
2022-12-02T10:03:52.089Z,8.30
2022-12-02T10:06:56.497Z,8.30
2022-12-02T10:09:59.714Z,7.60
2022-12-02T10:13:07.849Z,8.20
2022-12-02T10:16:14.060Z,8.30
2022-12-02T10:19:20.542Z,8.20
2022-12-02T10:22:24.869Z,8.20
2022-12-02T10:25:31.959Z,8.20
2022-12-02T10:28:38.012Z,8.90
2022-12-02T10:31:55.630Z,8.20
2022-12-02T10:35:09.608Z,8.90
2022-12-02T10:38:32.068Z,8.20
2022-12-02T10:41:35.067Z,8.20
2022-12-02T10:44:43.177Z,8.20
2022-12-02T10:47:46.542Z,8.20
2022-12-02T10:50:49.519Z,8.20
2022-12-02T10:53:57.165Z,8.20
2022-12-02T10:57:02.263Z,8.70
2022-12-02T11:00:15.008Z,8.20
2022-12-02T11:03:20.067Z,8.20
2022-12-02T11:06:25.032Z,8.30
2022-12-02T11:09:40.227Z,8.30
2022-12-02T11:13:02.167Z,8.30
2022-12-02T11:17:04.515Z,8.30
2022-12-02T11:20:43.343Z,8.30
2022-12-02T11:23:47.837Z,8.40
2022-12-02T11:27:18.224Z,8.40
2022-12-02T11:30:39.508Z,9.00
2022-12-02T11:34:06.678Z,8.50
2022-12-02T11:37:41.579Z,8.50
2022-12-02T11:41:01.166Z,8.50
2022-12-02T11:44:25.886Z,8.50
2022-12-02T11:47:33.978Z,8.50
2022-12-02T11:50:40.848Z,8.50
2022-12-02T11:53:52.749Z,8.50
2022-12-02T11:56:56.275Z,8.50
2022-12-02T12:00:00.723Z,8.50
2022-12-02T12:03:16.341Z,8.50
2022-12-02T12:06:21.887Z,8.50
2022-12-02T12:09:25.232Z,8.50
2022-12-02T12:12:28.195Z,8.50
2022-12-02T12:15:53.233Z,8.50
2022-12-02T12:19:00.168Z,8.50
2022-12-02T12:22:26.173Z,8.50
2022-12-02T12:25:33.251Z,8.50
2022-12-02T12:28:38.641Z,8.50
2022-12-02T12:31:43.994Z,8.50
2022-12-02T12:34:47.263Z,8.60
2022-12-02T12:37:50.828Z,8.50
2022-12-02T12:40:54.562Z,8.40
2022-12-02T12:43:57.536Z,8.50
2022-12-02T12:47:04.795Z,8.60
2022-12-02T12:50:09.555Z,8.50
2022-12-02T12:53:12.592Z,7.90
2022-12-02T12:56:15.736Z,8.50
2022-12-02T12:59:18.845Z,8.50
2022-12-02T13:02:23.215Z,8.50
2022-12-02T13:05:26.275Z,8.50
2022-12-02T13:08:29.756Z,8.50
2022-12-02T13:11:32.720Z,8.50
2022-12-02T13:14:35.901Z,8.50
2022-12-02T13:17:45.711Z,8.50
2022-12-02T13:20:51.653Z,9.70
2022-12-02T13:23:55.159Z,8.50
2022-12-02T13:26:58.116Z,8.50
2022-12-02T13:30:01.341Z,8.50
2022-12-02T13:33:05.680Z,8.50
2022-12-02T13:36:10.022Z,8.60
2022-12-02T13:39:13.435Z,8.60
2022-12-02T13:42:16.370Z,9.50
2022-12-02T13:45:19.635Z,8.60
2022-12-02T13:48:23.971Z,8.30
2022-12-02T13:51:26.978Z,8.60
2022-12-02T13:54:30.159Z,8.50
2022-12-02T13:57:33.163Z,8.50
2022-12-02T14:00:36.121Z,8.50
2022-12-02T14:03:40.562Z,8.50
2022-12-02T14:06:43.924Z,8.50
2022-12-02T14:09:46.924Z,8.60
2022-12-02T14:12:49.983Z,8.50
2022-12-02T14:15:52.967Z,8.50
2022-12-02T14:18:57.837Z,8.50
2022-12-02T14:22:00.939Z,8.60
2022-12-02T14:25:04.658Z,8.60
2022-12-02T14:28:08.016Z,8.60
2022-12-02T14:31:19.000Z,8.60
2022-12-02T14:34:30.692Z,8.60
2022-12-02T14:37:33.730Z,8.50
2022-12-02T14:40:36.851Z,8.50
2022-12-02T14:43:39.793Z,8.50
2022-12-02T14:46:46.890Z,8.50
2022-12-02T14:49:51.433Z,8.40
2022-12-02T14:52:54.627Z,8.50
2022-12-02T14:55:57.709Z,8.50
2022-12-02T14:59:00.691Z,8.50
2022-12-02T15:02:03.729Z,8.40
2022-12-02T15:05:14.263Z,9.00
2022-12-02T15:08:17.705Z,8.40
2022-12-02T15:11:20.925Z,8.40
2022-12-02T15:14:24.077Z,8.30
2022-12-02T15:17:27.095Z,8.30
2022-12-02T15:20:31.455Z,9.30
2022-12-02T15:23:34.460Z,8.30
2022-12-02T15:26:37.614Z,8.30
2022-12-02T15:29:40.811Z,8.30
2022-12-02T15:32:45.635Z,8.20
2022-12-02T15:35:50.037Z,8.20
2022-12-02T15:38:53.030Z,8.20
2022-12-02T15:41:56.061Z,8.20
2022-12-02T15:44:59.087Z,8.20
2022-12-02T15:48:02.441Z,8.20
2022-12-02T15:51:07.265Z,8.10
2022-12-02T15:54:10.424Z,8.20
2022-12-02T15:57:13.534Z,8.20
2022-12-02T16:00:17.508Z,8.10
2022-12-02T16:03:20.581Z,8.10
2022-12-02T16:06:25.221Z,8.10
2022-12-02T16:09:28.346Z,8.70
2022-12-02T16:12:31.387Z,8.10
2022-12-02T16:15:34.551Z,8.10
2022-12-02T16:18:37.925Z,8.10
2022-12-02T16:21:42.829Z,8.10
2022-12-02T16:24:46.066Z,8.10
2022-12-02T16:27:49.143Z,8.10
2022-12-02T16:30:52.115Z,8.10
2022-12-02T16:33:55.157Z,8.00
2022-12-02T16:37:02.060Z,8.00
2022-12-02T16:40:06.983Z,8.00
2022-12-02T16:43:10.172Z,8.00
2022-12-02T16:46:13.211Z,8.00
2022-12-02T16:49:16.384Z,8.00
2022-12-02T16:52:21.198Z,8.00
2022-12-02T16:55:24.255Z,7.90
2022-12-02T16:58:27.279Z,8.60
2022-12-02T17:01:30.339Z,7.90
2022-12-02T17:04:33.541Z,7.90
2022-12-02T17:07:38.621Z,7.90
2022-12-02T17:10:41.962Z,8.50
2022-12-02T17:13:45.509Z,7.80
2022-12-02T17:16:48.577Z,7.80
2022-12-02T17:19:51.616Z,7.80
2022-12-02T17:22:55.919Z,7.70
2022-12-02T17:25:58.900Z,7.80
2022-12-02T17:29:02.796Z,7.70
2022-12-02T17:32:06.522Z,7.70
2022-12-02T17:35:11.563Z,7.70
2022-12-02T17:38:15.929Z,7.70
2022-12-02T17:41:19.175Z,7.70
2022-12-02T17:44:22.143Z,7.50
2022-12-02T17:47:25.118Z,7.60
2022-12-02T17:50:28.117Z,7.60
2022-12-02T17:53:32.459Z,7.60
2022-12-02T17:56:35.529Z,8.40
2022-12-02T17:59:38.530Z,7.60
2022-12-02T18:02:41.802Z,7.60
2022-12-02T18:05:44.902Z,7.60
2022-12-02T18:08:49.419Z,7.50
2022-12-02T18:11:52.403Z,7.60
2022-12-02T18:14:55.593Z,7.50
2022-12-02T18:17:58.776Z,6.70
2022-12-02T18:21:01.883Z,7.50
2022-12-02T18:24:07.501Z,7.30
2022-12-02T18:27:10.553Z,7.50
2022-12-02T18:30:17.508Z,7.50
2022-12-02T18:33:20.840Z,7.50
2022-12-02T18:36:24.100Z,7.40
2022-12-02T18:39:28.559Z,7.40
2022-12-02T18:42:31.787Z,7.50
2022-12-02T18:45:34.810Z,7.40
2022-12-02T18:48:37.807Z,7.40
2022-12-02T18:51:40.979Z,7.50
2022-12-02T18:54:45.283Z,7.50
2022-12-02T18:57:48.416Z,7.40
2022-12-02T19:00:51.503Z,7.50
2022-12-02T19:03:54.605Z,7.40
2022-12-02T19:06:57.603Z,7.40
2022-12-02T19:10:01.969Z,7.50
2022-12-02T19:13:04.990Z,7.50
2022-12-02T19:16:08.723Z,7.50
2022-12-02T19:19:11.863Z,7.40
2022-12-02T19:22:14.908Z,7.40
2022-12-02T19:25:19.843Z,7.40
2022-12-02T19:28:23.214Z,7.30
2022-12-02T19:31:26.303Z,7.40
2022-12-02T19:34:29.397Z,7.30
2022-12-02T19:37:32.433Z,7.40
2022-12-02T19:40:44.264Z,7.50
2022-12-02T19:43:48.911Z,7.30
2022-12-02T19:46:52.041Z,7.30
2022-12-02T19:49:55.172Z,7.30
2022-12-02T19:52:58.390Z,7.30
2022-12-02T19:56:02.675Z,7.30
2022-12-02T19:59:05.735Z,7.30
2022-12-02T20:02:09.613Z,7.20
2022-12-02T20:05:16.208Z,7.20
2022-12-02T20:08:19.440Z,7.20
2022-12-02T20:11:23.848Z,7.20
2022-12-02T20:14:27.968Z,7.10
2022-12-02T20:17:31.045Z,7.10
2022-12-02T20:20:33.995Z,7.10
2022-12-02T20:23:36.996Z,6.50
2022-12-02T20:26:41.338Z,7.00
2022-12-02T20:29:44.380Z,7.70
2022-12-02T20:32:47.396Z,6.90
2022-12-02T20:35:50.419Z,6.90
2022-12-02T20:38:53.369Z,6.90
2022-12-02T20:41:57.666Z,6.80
2022-12-02T20:45:00.804Z,6.80
2022-12-02T20:48:03.823Z,6.80
2022-12-02T20:51:07.282Z,6.80
2022-12-02T20:54:10.273Z,6.80
2022-12-02T20:57:14.690Z,7.10
2022-12-02T21:00:19.445Z,6.80
2022-12-02T21:03:22.925Z,6.70
2022-12-02T21:06:25.980Z,6.70
2022-12-02T21:09:29.011Z,6.70
2022-12-02T21:12:34.154Z,6.70
2022-12-02T21:15:37.497Z,6.60
2022-12-02T21:18:40.591Z,6.70
2022-12-02T21:21:43.583Z,6.60
2022-12-02T21:24:46.472Z,6.70
2022-12-02T21:27:50.829Z,6.70
2022-12-02T21:30:53.914Z,6.60
2022-12-02T21:33:56.932Z,6.60
2022-12-02T21:36:59.916Z,6.70
2022-12-02T21:40:03.029Z,6.70
2022-12-02T21:43:11.616Z,6.70
2022-12-02T21:46:17.459Z,6.60
2022-12-02T21:49:20.466Z,6.60
2022-12-02T21:52:23.771Z,6.60
2022-12-02T21:55:26.779Z,6.60
2022-12-02T21:58:31.361Z,6.50
2022-12-02T22:01:41.642Z,6.50
2022-12-02T22:04:45.448Z,6.50
2022-12-02T22:07:48.710Z,6.50
2022-12-02T22:10:52.411Z,6.60
2022-12-02T22:13:56.937Z,6.60
2022-12-02T22:16:59.987Z,6.50
2022-12-02T22:20:03.102Z,6.60
2022-12-02T22:23:06.152Z,6.50
2022-12-02T22:26:10.668Z,6.50
2022-12-02T22:29:16.638Z,7.00
2022-12-02T22:32:20.206Z,6.50
2022-12-02T22:35:23.524Z,6.60
2022-12-02T22:38:26.475Z,6.60
2022-12-02T22:41:29.553Z,6.60
2022-12-02T22:44:34.068Z,6.50
2022-12-02T22:47:37.063Z,6.60
2022-12-02T22:50:39.971Z,6.50
2022-12-02T22:53:42.906Z,6.60
2022-12-02T22:56:45.825Z,6.50
2022-12-02T22:59:50.209Z,6.80
2022-12-02T23:02:53.277Z,6.60
2022-12-02T23:05:56.380Z,6.50
2022-12-02T23:08:59.390Z,6.50
2022-12-02T23:12:02.365Z,6.50
2022-12-02T23:15:35.996Z,6.50
2022-12-02T23:18:31.638Z,6.50
2022-12-02T23:21:34.628Z,6.50
2022-12-02T23:24:37.637Z,6.50
2022-12-02T23:27:40.605Z,6.50
2022-12-02T23:30:45.095Z,6.50
2022-12-02T23:33:48.483Z,6.50
2022-12-02T23:36:51.508Z,6.50
2022-12-02T23:39:54.571Z,6.50
2022-12-02T23:42:57.497Z,6.50
2022-12-02T23:46:01.960Z,6.50
2022-12-02T23:49:05.335Z,6.50
2022-12-02T23:52:08.434Z,6.50
2022-12-02T23:55:11.701Z,6.50
2022-12-02T23:58:14.681Z,6.50
